Lulu Pass Weather Station

This weather station provides temperature, relative humidity (RH), wind speed, gust or max wind speed, and wind direction at 10014ft near Lulu Pass at the head of Fisher Creek. This data can be used with temperature and precipitation data from the Fisher Creek SNOTEL site.

This weather station was purchased by the Friends of the Avalanche Center.

If the data has not been updated recently you can view it directly on datagarrison.com

Elevation
10014ft
Jump to table bottom
Date Time Temperature
deg F
RH, % Wind Speed Wind Gust Wind Direction
01/16/19 22:07 16.3 95 16 27 SW - 239
01/16/19 21:07 16.6 95 10 23 W - 253
01/16/19 20:07 16.4 95 9 20 W - 248
01/16/19 19:07 16.6 95 6 16 SW - 237
01/16/19 18:07 17.2 95 7 14 SW - 237
01/16/19 17:07 18.1 96 6 15 W - 263
01/16/19 16:07 19.0 95 7 16 W - 277
01/16/19 15:07 19.4 95 9 21 SW - 246
01/16/19 14:07 19.6 95 6 14 W - 260
01/16/19 13:07 19.3 94 6 14 W - 260
01/16/19 12:07 18.6 94 4 12 SW - 246
01/16/19 11:07 17.4 94 6 15 SW - 246
01/16/19 10:07 17.1 94 6 15 W - 251
01/16/19 09:07 16.3 94 6 14 W - 285
01/16/19 08:07 16.0 94 7 17 W - 281
01/16/19 07:07 15.9 94 8 20 W - 264
01/16/19 06:07 15.9 94 7 16 W - 271
01/16/19 05:07 16.0 93 9 26 NW - 293
01/16/19 04:07 16.2 93 7 16 W - 263
01/16/19 03:07 16.2 93 7 20 W - 260
01/16/19 02:07 16.1 93 6 15 W - 275
01/16/19 01:07 15.9 93 7 19 W - 258
01/16/19 00:07 16.3 92 8 24 SW - 232
01/15/19 23:07 16.6 93 11 24 SW - 225
01/15/19 22:07 16.6 93 10 24 SW - 230
01/15/19 21:07 17.1 93 16 31 SW - 218
01/15/19 20:07 17.1 92 12 29 SW - 219
01/15/19 19:07 17.2 84 15 27 SW - 209
01/15/19 18:07 18.1 70 7 17 SW - 222
01/15/19 17:07 18.0 48 11 22 S - 199
01/15/19 16:07 20.7 34 10 24 S - 183
01/15/19 15:07 21.9 32 7 19 SW - 215
01/15/19 14:07 22.7 29 7 21 S - 173
01/15/19 13:07 23.5 34 4 18 S - 188
01/15/19 12:07 23.7 35 5 17 S - 180
01/15/19 11:07 23.8 35 3 8 NW - 329
01/15/19 10:07 23.6 32 2 7 E - 102
01/15/19 09:07 21.9 30 3 6 E - 110
01/15/19 08:07 21.3 35 2 4 SE - 128
01/15/19 07:07 19.5 38 1 4 SE - 117
01/15/19 06:07 21.4 38 3 7 N - 351
01/15/19 05:07 18.4 38 4 7 N - 351
01/15/19 04:07 20.3 38 6 9 N - 355
01/15/19 03:07 20.0 50 7 10 N - 13
01/15/19 02:07 16.5 49 9 11 N - 348
01/15/19 01:07 20.3 41 7 10 N - 348
01/15/19 00:07 22.0 39 8 11 N - 351
01/14/19 23:07 23.2 38 8 12 N - 348
01/14/19 22:07 20.8 46 7 9 N - 352
01/14/19 21:07 20.3 47 8 10 N - 348